KGR weather

Kulgera Airport
Kulgera, Northern Territory, Australia

Public forecast

Using degrees Celsius for public forecast. Weather courtesy of forecast.io.

METAR (pilot weather report)

Closest report is Ayers Rock Connellan Airport, 131.5 nm (243.6 km) WNW. Retrieved 2019/05/25 04:00 UTC (26 minutes ago):

YAYE 250400Z AUTO 36007KT 9999 // NCD 28/03 Q1019

TAF (pilot weather forecast)

Forecast is more than 12 hours old.

Closest forecast is Alice Springs Airport, 126.7 nm (234.6 km) NNE. Retrieved 2019/05/24 00:00 UTC (1 day ago):

TAF YBAS 242311Z 2500/2524 30005KT CAVOK FM250100 11008KT CAVOK FM250800 14005KT CAVOK FM251700 30005KT CAVOK